sensor_id;sensor_type;location;lat;lon;timestamp;P1;durP1;ratioP1;P2;durP2;ratioP2
68803;SDS011;55787;52.678;13.314;2023-04-24T00:01:04;10.45;;;4.60;;
68803;SDS011;55787;52.678;13.314;2023-04-24T00:03:33;11.18;;;4.70;;
68803;SDS011;55787;52.678;13.314;2023-04-24T00:06:01;10.35;;;4.53;;
68803;SDS011;55787;52.678;13.314;2023-04-24T00:08:28;10.80;;;4.47;;
68803;SDS011;55787;52.678;13.314;2023-04-24T00:10:55;10.85;;;4.60;;
68803;SDS011;55787;52.678;13.314;2023-04-24T00:13:22;11.23;;;4.60;;
68803;SDS011;55787;52.678;13.314;2023-04-24T00:15:49;10.20;;;4.28;;
68803;SDS011;55787;52.678;13.314;2023-04-24T00:18:15;10.73;;;4.70;;
68803;SDS011;55787;52.678;13.314;2023-04-24T00:20:42;10.90;;;4.47;;
68803;SDS011;55787;52.678;13.314;2023-04-24T00:23:10;11.45;;;4.50;;
68803;SDS011;55787;52.678;13.314;2023-04-24T00:25:36;10.23;;;4.20;;
68803;SDS011;55787;52.678;13.314;2023-04-24T00:28:03;10.80;;;4.63;;
68803;SDS011;55787;52.678;13.314;2023-04-24T00:30:30;11.30;;;4.97;;
68803;SDS011;55787;52.678;13.314;2023-04-24T00:32:57;10.73;;;4.43;;
68803;SDS011;55787;52.678;13.314;2023-04-24T00:35:24;10.57;;;4.75;;
68803;SDS011;55787;52.678;13.314;2023-04-24T00:37:50;10.35;;;4.47;;
68803;SDS011;55787;52.678;13.314;2023-04-24T00:40:17;11.40;;;4.78;;
68803;SDS011;55787;52.678;13.314;2023-04-24T00:42:43;11.73;;;4.70;;
68803;SDS011;55787;52.678;13.314;2023-04-24T00:45:11;11.82;;;4.72;;
68803;SDS011;55787;52.678;13.314;2023-04-24T00:47:38;10.70;;;4.80;;
68803;SDS011;55787;52.678;13.314;2023-04-24T00:50:06;11.32;;;4.97;;
68803;SDS011;55787;52.678;13.314;2023-04-24T00:52:33;12.32;;;5.43;;
68803;SDS011;55787;52.678;13.314;2023-04-24T00:55:00;11.52;;;5.15;;
68803;SDS011;55787;52.678;13.314;2023-04-24T00:57:26;13.45;;;5.03;;
68803;SDS011;55787;52.678;13.314;2023-04-24T00:59:53;11.63;;;4.95;;
68803;SDS011;55787;52.678;13.314;2023-04-24T01:02:21;12.77;;;5.70;;
68803;SDS011;55787;52.678;13.314;2023-04-24T01:04:50;15.13;;;5.70;;
68803;SDS011;55787;52.678;13.314;2023-04-24T01:07:20;13.18;;;5.65;;
68803;SDS011;55787;52.678;13.314;2023-04-24T01:09:48;13.10;;;5.30;;
68803;SDS011;55787;52.678;13.314;2023-04-24T01:12:17;11.30;;;5.25;;
68803;SDS011;55787;52.678;13.314;2023-04-24T01:14:45;11.57;;;5.10;;
68803;SDS011;55787;52.678;13.314;2023-04-24T01:17:12;13.77;;;5.50;;
68803;SDS011;55787;52.678;13.314;2023-04-24T01:19:38;11.43;;;5.40;;
68803;SDS011;55787;52.678;13.314;2023-04-24T01:22:10;11.05;;;5.25;;
68803;SDS011;55787;52.678;13.314;2023-04-24T01:24:38;13.35;;;5.65;;
68803;SDS011;55787;52.678;13.314;2023-04-24T01:27:05;12.73;;;5.75;;
68803;SDS011;55787;52.678;13.314;2023-04-24T01:29:33;10.85;;;5.25;;
68803;SDS011;55787;52.678;13.314;2023-04-24T01:32:02;11.23;;;5.03;;
68803;SDS011;55787;52.678;13.314;2023-04-24T01:34:29;12.38;;;5.75;;
68803;SDS011;55787;52.678;13.314;2023-04-24T01:36:56;12.40;;;5.07;;
68803;SDS011;55787;52.678;13.314;2023-04-24T01:39:23;10.82;;;4.90;;
68803;SDS011;55787;52.678;13.314;2023-04-24T01:41:52;10.70;;;5.07;;
68803;SDS011;55787;52.678;13.314;2023-04-24T01:44:20;11.02;;;5.07;;
68803;SDS011;55787;52.678;13.314;2023-04-24T01:46:47;13.60;;;5.80;;
68803;SDS011;55787;52.678;13.314;2023-04-24T01:49:14;11.90;;;5.32;;
68803;SDS011;55787;52.678;13.314;2023-04-24T01:51:40;11.30;;;5.22;;
68803;SDS011;55787;52.678;13.314;2023-04-24T01:54:07;13.65;;;5.43;;
68803;SDS011;55787;52.678;13.314;2023-04-24T01:56:34;13.98;;;6.18;;
68803;SDS011;55787;52.678;13.314;2023-04-24T01:59:03;13.25;;;5.88;;
68803;SDS011;55787;52.678;13.314;2023-04-24T02:01:34;14.52;;;6.28;;
68803;SDS011;55787;52.678;13.314;2023-04-24T02:04:04;13.25;;;6.00;;
68803;SDS011;55787;52.678;13.314;2023-04-24T02:06:32;13.88;;;6.10;;
68803;SDS011;55787;52.678;13.314;2023-04-24T02:08:59;14.43;;;6.45;;
68803;SDS011;55787;52.678;13.314;2023-04-24T02:11:26;13.88;;;6.35;;
68803;SDS011;55787;52.678;13.314;2023-04-24T02:13:53;12.95;;;6.15;;
68803;SDS011;55787;52.678;13.314;2023-04-24T02:16:19;13.43;;;6.22;;
68803;SDS011;55787;52.678;13.314;2023-04-24T02:18:47;14.90;;;6.65;;
68803;SDS011;55787;52.678;13.314;2023-04-24T02:21:14;14.45;;;6.28;;
68803;SDS011;55787;52.678;13.314;2023-04-24T02:23:40;13.98;;;6.30;;
68803;SDS011;55787;52.678;13.314;2023-04-24T02:26:07;13.57;;;6.97;;
68803;SDS011;55787;52.678;13.314;2023-04-24T02:28:34;13.13;;;6.10;;
68803;SDS011;55787;52.678;13.314;2023-04-24T02:31:00;13.98;;;6.40;;
68803;SDS011;55787;52.678;13.314;2023-04-24T02:33:27;13.40;;;6.47;;
68803;SDS011;55787;52.678;13.314;2023-04-24T02:35:54;13.27;;;6.30;;
68803;SDS011;55787;52.678;13.314;2023-04-24T02:38:20;14.07;;;6.68;;
68803;SDS011;55787;52.678;13.314;2023-04-24T02:40:47;13.90;;;6.65;;
68803;SDS011;55787;52.678;13.314;2023-04-24T02:43:14;14.73;;;6.88;;
68803;SDS011;55787;52.678;13.314;2023-04-24T02:45:40;14.88;;;6.32;;
68803;SDS011;55787;52.678;13.314;2023-04-24T02:48:07;15.80;;;6.57;;
68803;SDS011;55787;52.678;13.314;2023-04-24T02:50:34;14.45;;;6.63;;
68803;SDS011;55787;52.678;13.314;2023-04-24T02:53:00;14.82;;;7.53;;
68803;SDS011;55787;52.678;13.314;2023-04-24T02:55:27;15.30;;;7.15;;
68803;SDS011;55787;52.678;13.314;2023-04-24T02:57:54;14.85;;;6.85;;
68803;SDS011;55787;52.678;13.314;2023-04-24T03:00:20;13.57;;;6.70;;
68803;SDS011;55787;52.678;13.314;2023-04-24T03:02:47;15.40;;;6.65;;
68803;SDS011;55787;52.678;13.314;2023-04-24T03:05:15;14.35;;;6.82;;
68803;SDS011;55787;52.678;13.314;2023-04-24T03:07:42;14.93;;;6.88;;
68803;SDS011;55787;52.678;13.314;2023-04-24T03:10:09;15.38;;;6.65;;
68803;SDS011;55787;52.678;13.314;2023-04-24T03:12:36;14.80;;;7.25;;
68803;SDS011;55787;52.678;13.314;2023-04-24T03:15:02;15.85;;;7.10;;
68803;SDS011;55787;52.678;13.314;2023-04-24T03:17:29;15.10;;;6.95;;
68803;SDS011;55787;52.678;13.314;2023-04-24T03:19:56;14.32;;;6.75;;
68803;SDS011;55787;52.678;13.314;2023-04-24T03:22:23;14.25;;;7.00;;
68803;SDS011;55787;52.678;13.314;2023-04-24T03:24:49;16.20;;;7.20;;
68803;SDS011;55787;52.678;13.314;2023-04-24T03:27:16;17.23;;;7.57;;
68803;SDS011;55787;52.678;13.314;2023-04-24T03:29:42;17.10;;;7.22;;
68803;SDS011;55787;52.678;13.314;2023-04-24T03:32:09;14.55;;;7.18;;
68803;SDS011;55787;52.678;13.314;2023-04-24T03:34:36;14.48;;;6.63;;
68803;SDS011;55787;52.678;13.314;2023-04-24T03:37:02;16.10;;;7.60;;
68803;SDS011;55787;52.678;13.314;2023-04-24T03:39:29;15.73;;;7.32;;
68803;SDS011;55787;52.678;13.314;2023-04-24T03:41:56;14.85;;;7.00;;
68803;SDS011;55787;52.678;13.314;2023-04-24T03:44:22;17.55;;;7.90;;
68803;SDS011;55787;52.678;13.314;2023-04-24T03:46:49;15.77;;;7.53;;
68803;SDS011;55787;52.678;13.314;2023-04-24T03:49:15;15.75;;;7.25;;
68803;SDS011;55787;52.678;13.314;2023-04-24T03:51:42;15.75;;;7.60;;
68803;SDS011;55787;52.678;13.314;2023-04-24T03:54:09;15.43;;;7.13;;
68803;SDS011;55787;52.678;13.314;2023-04-24T03:56:35;15.75;;;7.38;;
68803;SDS011;55787;52.678;13.314;2023-04-24T03:59:02;15.57;;;7.38;;
68803;SDS011;55787;52.678;13.314;2023-04-24T04:01:28;15.23;;;7.40;;
68803;SDS011;55787;52.678;13.314;2023-04-24T04:03:55;15.77;;;7.53;;
68803;SDS011;55787;52.678;13.314;2023-04-24T04:06:22;15.98;;;7.60;;
68803;SDS011;55787;52.678;13.314;2023-04-24T04:08:48;16.83;;;8.10;;
68803;SDS011;55787;52.678;13.314;2023-04-24T04:11:15;16.98;;;7.60;;
68803;SDS011;55787;52.678;13.314;2023-04-24T04:13:41;15.93;;;7.75;;
68803;SDS011;55787;52.678;13.314;2023-04-24T04:16:08;18.27;;;7.93;;
68803;SDS011;55787;52.678;13.314;2023-04-24T04:18:35;17.55;;;8.23;;
68803;SDS011;55787;52.678;13.314;2023-04-24T04:21:01;18.75;;;8.07;;
68803;SDS011;55787;52.678;13.314;2023-04-24T04:23:28;15.82;;;8.13;;
68803;SDS011;55787;52.678;13.314;2023-04-24T04:25:55;20.33;;;8.00;;
68803;SDS011;55787;52.678;13.314;2023-04-24T04:28:21;16.85;;;8.18;;
68803;SDS011;55787;52.678;13.314;2023-04-24T04:30:48;17.60;;;8.77;;
68803;SDS011;55787;52.678;13.314;2023-04-24T04:33:15;17.33;;;8.05;;
68803;SDS011;55787;52.678;13.314;2023-04-24T04:35:42;16.98;;;8.50;;
68803;SDS011;55787;52.678;13.314;2023-04-24T04:38:09;16.38;;;8.13;;
68803;SDS011;55787;52.678;13.314;2023-04-24T04:40:37;16.98;;;8.15;;
68803;SDS011;55787;52.678;13.314;2023-04-24T04:43:04;18.48;;;8.05;;
68803;SDS011;55787;52.678;13.314;2023-04-24T04:45:31;16.77;;;8.20;;
68803;SDS011;55787;52.678;13.314;2023-04-24T04:47:58;15.65;;;7.75;;
68803;SDS011;55787;52.678;13.314;2023-04-24T04:50:27;17.75;;;9.00;;
68803;SDS011;55787;52.678;13.314;2023-04-24T04:52:54;18.10;;;7.75;;
68803;SDS011;55787;52.678;13.314;2023-04-24T04:55:20;17.83;;;8.18;;
68803;SDS011;55787;52.678;13.314;2023-04-24T04:57:47;18.77;;;9.10;;
68803;SDS011;55787;52.678;13.314;2023-04-24T05:00:14;18.25;;;8.43;;
68803;SDS011;55787;52.678;13.314;2023-04-24T05:02:42;20.90;;;8.63;;
68803;SDS011;55787;52.678;13.314;2023-04-24T05:05:09;18.33;;;8.43;;
68803;SDS011;55787;52.678;13.314;2023-04-24T05:07:36;19.63;;;8.85;;
68803;SDS011;55787;52.678;13.314;2023-04-24T05:10:02;17.38;;;8.20;;
68803;SDS011;55787;52.678;13.314;2023-04-24T05:12:29;16.42;;;7.82;;
68803;SDS011;55787;52.678;13.314;2023-04-24T05:14:56;17.92;;;8.25;;
68803;SDS011;55787;52.678;13.314;2023-04-24T05:17:22;17.45;;;8.25;;
68803;SDS011;55787;52.678;13.314;2023-04-24T05:19:49;15.70;;;7.07;;
68803;SDS011;55787;52.678;13.314;2023-04-24T05:22:15;13.75;;;6.70;;
68803;SDS011;55787;52.678;13.314;2023-04-24T05:24:44;14.90;;;6.25;;
68803;SDS011;55787;52.678;13.314;2023-04-24T05:27:11;16.48;;;7.10;;
68803;SDS011;55787;52.678;13.314;2023-04-24T05:29:37;13.57;;;5.65;;
68803;SDS011;55787;52.678;13.314;2023-04-24T05:32:04;11.38;;;5.15;;
68803;SDS011;55787;52.678;13.314;2023-04-24T05:34:31;13.27;;;5.30;;
68803;SDS011;55787;52.678;13.314;2023-04-24T05:36:57;10.23;;;4.30;;
68803;SDS011;55787;52.678;13.314;2023-04-24T05:39:24;10.60;;;4.47;;
68803;SDS011;55787;52.678;13.314;2023-04-24T05:41:51;10.32;;;4.50;;
68803;SDS011;55787;52.678;13.314;2023-04-24T05:44:18;10.48;;;4.30;;
68803;SDS011;55787;52.678;13.314;2023-04-24T05:46:44;9.25;;;3.88;;
68803;SDS011;55787;52.678;13.314;2023-04-24T05:49:11;8.18;;;3.40;;
68803;SDS011;55787;52.678;13.314;2023-04-24T05:51:37;9.00;;;3.40;;
68803;SDS011;55787;52.678;13.314;2023-04-24T05:54:05;7.75;;;3.20;;
68803;SDS011;55787;52.678;13.314;2023-04-24T05:56:32;9.07;;;3.20;;
68803;SDS011;55787;52.678;13.314;2023-04-24T05:58:59;7.80;;;2.90;;
68803;SDS011;55787;52.678;13.314;2023-04-24T06:01:25;9.13;;;2.70;;
68803;SDS011;55787;52.678;13.314;2023-04-24T06:03:52;7.65;;;2.80;;
68803;SDS011;55787;52.678;13.314;2023-04-24T06:06:19;13.05;;;2.67;;
68803;SDS011;55787;52.678;13.314;2023-04-24T06:08:46;7.57;;;2.60;;
68803;SDS011;55787;52.678;13.314;2023-04-24T06:11:13;6.80;;;2.60;;
68803;SDS011;55787;52.678;13.314;2023-04-24T06:13:39;6.32;;;2.40;;
68803;SDS011;55787;52.678;13.314;2023-04-24T06:16:06;7.07;;;2.30;;
68803;SDS011;55787;52.678;13.314;2023-04-24T06:18:32;7.15;;;2.13;;
68803;SDS011;55787;52.678;13.314;2023-04-24T06:20:59;6.03;;;2.10;;
68803;SDS011;55787;52.678;13.314;2023-04-24T06:23:26;8.25;;;2.03;;
68803;SDS011;55787;52.678;13.314;2023-04-24T06:25:53;6.25;;;2.00;;
68803;SDS011;55787;52.678;13.314;2023-04-24T06:28:20;6.38;;;2.00;;
68803;SDS011;55787;52.678;13.314;2023-04-24T06:30:46;5.75;;;1.80;;
68803;SDS011;55787;52.678;13.314;2023-04-24T06:33:13;6.20;;;1.80;;
68803;SDS011;55787;52.678;13.314;2023-04-24T06:35:47;6.10;;;1.52;;
68803;SDS011;55787;52.678;13.314;2023-04-24T06:38:14;5.60;;;1.50;;
68803;SDS011;55787;52.678;13.314;2023-04-24T06:40:42;5.90;;;1.80;;
68803;SDS011;55787;52.678;13.314;2023-04-24T06:43:11;6.28;;;1.80;;
68803;SDS011;55787;52.678;13.314;2023-04-24T06:45:38;6.13;;;1.55;;
68803;SDS011;55787;52.678;13.314;2023-04-24T06:48:06;6.88;;;1.55;;
68803;SDS011;55787;52.678;13.314;2023-04-24T06:50:33;5.70;;;1.40;;
68803;SDS011;55787;52.678;13.314;2023-04-24T06:52:59;6.43;;;1.27;;
68803;SDS011;55787;52.678;13.314;2023-04-24T06:55:26;5.28;;;1.10;;
68803;SDS011;55787;52.678;13.314;2023-04-24T06:57:52;5.00;;;0.95;;
68803;SDS011;55787;52.678;13.314;2023-04-24T07:00:19;4.82;;;1.05;;
68803;SDS011;55787;52.678;13.314;2023-04-24T07:02:46;5.22;;;1.40;;
68803;SDS011;55787;52.678;13.314;2023-04-24T07:05:13;5.10;;;1.05;;
68803;SDS011;55787;52.678;13.314;2023-04-24T07:07:41;4.57;;;0.88;;
68803;SDS011;55787;52.678;13.314;2023-04-24T07:10:09;5.72;;;1.00;;
68803;SDS011;55787;52.678;13.314;2023-04-24T07:12:36;5.30;;;1.00;;
68803;SDS011;55787;52.678;13.314;2023-04-24T07:15:04;4.50;;;0.80;;
68803;SDS011;55787;52.678;13.314;2023-04-24T07:17:32;4.88;;;0.95;;
68803;SDS011;55787;52.678;13.314;2023-04-24T07:19:58;5.63;;;1.00;;
68803;SDS011;55787;52.678;13.314;2023-04-24T07:22:25;5.43;;;1.00;;
68803;SDS011;55787;52.678;13.314;2023-04-24T07:24:51;5.47;;;1.10;;
68803;SDS011;55787;52.678;13.314;2023-04-24T07:27:18;6.07;;;1.30;;
68803;SDS011;55787;52.678;13.314;2023-04-24T07:29:45;4.78;;;1.10;;
68803;SDS011;55787;52.678;13.314;2023-04-24T07:32:12;5.30;;;1.13;;
68803;SDS011;55787;52.678;13.314;2023-04-24T07:34:38;4.28;;;1.00;;
68803;SDS011;55787;52.678;13.314;2023-04-24T07:37:05;5.05;;;1.25;;
68803;SDS011;55787;52.678;13.314;2023-04-24T07:39:32;4.88;;;1.10;;
68803;SDS011;55787;52.678;13.314;2023-04-24T07:41:58;5.40;;;1.48;;
68803;SDS011;55787;52.678;13.314;2023-04-24T07:44:25;4.78;;;1.33;;
68803;SDS011;55787;52.678;13.314;2023-04-24T07:46:52;5.88;;;0.90;;
68803;SDS011;55787;52.678;13.314;2023-04-24T07:49:19;4.40;;;0.80;;
68803;SDS011;55787;52.678;13.314;2023-04-24T07:51:47;5.13;;;1.33;;
68803;SDS011;55787;52.678;13.314;2023-04-24T07:54:13;4.15;;;0.73;;
68803;SDS011;55787;52.678;13.314;2023-04-24T07:56:40;4.22;;;0.80;;
68803;SDS011;55787;52.678;13.314;2023-04-24T07:59:09;4.50;;;1.05;;
68803;SDS011;55787;52.678;13.314;2023-04-24T08:01:36;5.00;;;1.40;;
68803;SDS011;55787;52.678;13.314;2023-04-24T08:04:04;4.53;;;0.93;;
68803;SDS011;55787;52.678;13.314;2023-04-24T08:06:31;4.40;;;1.20;;
68803;SDS011;55787;52.678;13.314;2023-04-24T08:08:59;5.03;;;0.90;;
68803;SDS011;55787;52.678;13.314;2023-04-24T08:11:26;6.63;;;1.08;;
68803;SDS011;55787;52.678;13.314;2023-04-24T08:13:53;4.00;;;0.73;;
68803;SDS011;55787;52.678;13.314;2023-04-24T08:16:21;5.13;;;0.95;;
68803;SDS011;55787;52.678;13.314;2023-04-24T08:18:48;5.03;;;0.80;;
68803;SDS011;55787;52.678;13.314;2023-04-24T08:21:14;4.25;;;0.95;;
68803;SDS011;55787;52.678;13.314;2023-04-24T08:23:43;4.75;;;1.10;;
68803;SDS011;55787;52.678;13.314;2023-04-24T08:26:10;4.50;;;0.80;;
68803;SDS011;55787;52.678;13.314;2023-04-24T08:28:37;3.92;;;0.60;;
68803;SDS011;55787;52.678;13.314;2023-04-24T08:31:04;3.50;;;0.57;;
68803;SDS011;55787;52.678;13.314;2023-04-24T08:33:31;4.47;;;0.90;;
68803;SDS011;55787;52.678;13.314;2023-04-24T08:36:02;3.67;;;0.73;;
68803;SDS011;55787;52.678;13.314;2023-04-24T08:38:29;3.22;;;0.60;;
68803;SDS011;55787;52.678;13.314;2023-04-24T08:40:57;3.85;;;0.50;;
68803;SDS011;55787;52.678;13.314;2023-04-24T08:43:25;3.08;;;0.60;;
68803;SDS011;55787;52.678;13.314;2023-04-24T08:45:56;4.70;;;0.60;;
68803;SDS011;55787;52.678;13.314;2023-04-24T08:48:23;4.22;;;0.68;;
68803;SDS011;55787;52.678;13.314;2023-04-24T08:50:58;3.95;;;0.80;;
68803;SDS011;55787;52.678;13.314;2023-04-24T08:53:26;3.65;;;0.60;;
68803;SDS011;55787;52.678;13.314;2023-04-24T08:55:54;5.07;;;0.82;;
68803;SDS011;55787;52.678;13.314;2023-04-24T08:58:23;4.57;;;0.88;;
68803;SDS011;55787;52.678;13.314;2023-04-24T09:00:53;3.63;;;0.70;;
68803;SDS011;55787;52.678;13.314;2023-04-24T09:03:21;4.03;;;0.77;;
68803;SDS011;55787;52.678;13.314;2023-04-24T09:05:48;3.83;;;0.60;;
68803;SDS011;55787;52.678;13.314;2023-04-24T09:08:17;4.15;;;0.60;;
68803;SDS011;55787;52.678;13.314;2023-04-24T09:10:45;3.70;;;0.60;;
68803;SDS011;55787;52.678;13.314;2023-04-24T09:13:15;3.28;;;0.50;;
68803;SDS011;55787;52.678;13.314;2023-04-24T09:15:42;4.10;;;0.50;;
68803;SDS011;55787;52.678;13.314;2023-04-24T09:18:09;4.55;;;0.60;;
68803;SDS011;55787;52.678;13.314;2023-04-24T09:20:56;3.83;;;0.50;;
68803;SDS011;55787;52.678;13.314;2023-04-24T09:23:30;3.88;;;0.60;;
68803;SDS011;55787;52.678;13.314;2023-04-24T09:25:57;3.88;;;0.60;;
68803;SDS011;55787;52.678;13.314;2023-04-24T09:28:29;3.60;;;0.57;;
68803;SDS011;55787;52.678;13.314;2023-04-24T09:33:30;3.78;;;0.50;;
68803;SDS011;55787;52.678;13.314;2023-04-24T09:35:58;3.20;;;0.50;;
68803;SDS011;55787;52.678;13.314;2023-04-24T09:38:37;4.13;;;0.40;;
68803;SDS011;55787;52.678;13.314;2023-04-24T09:41:05;3.83;;;0.50;;
68803;SDS011;55787;52.678;13.314;2023-04-24T09:43:34;3.42;;;0.50;;
68803;SDS011;55787;52.678;13.314;2023-04-24T09:46:05;3.60;;;0.50;;
68803;SDS011;55787;52.678;13.314;2023-04-24T09:48:34;4.30;;;0.60;;
68803;SDS011;55787;52.678;13.314;2023-04-24T09:51:02;5.00;;;0.60;;
68803;SDS011;55787;52.678;13.314;2023-04-24T09:53:33;3.83;;;0.63;;
68803;SDS011;55787;52.678;13.314;2023-04-24T09:56:06;3.00;;;0.40;;
68803;SDS011;55787;52.678;13.314;2023-04-24T09:58:38;4.22;;;0.50;;
68803;SDS011;55787;52.678;13.314;2023-04-24T10:01:05;3.47;;;0.52;;
68803;SDS011;55787;52.678;13.314;2023-04-24T10:03:32;4.00;;;0.70;;
68803;SDS011;55787;52.678;13.314;2023-04-24T10:06:00;3.53;;;0.50;;
68803;SDS011;55787;52.678;13.314;2023-04-24T10:08:35;4.85;;;0.63;;
68803;SDS011;55787;52.678;13.314;2023-04-24T10:11:03;3.33;;;0.40;;
68803;SDS011;55787;52.678;13.314;2023-04-24T10:13:30;5.10;;;0.60;;
68803;SDS011;55787;52.678;13.314;2023-04-24T10:15:58;3.65;;;0.50;;
68803;SDS011;55787;52.678;13.314;2023-04-24T10:18:26;4.13;;;0.50;;
68803;SDS011;55787;52.678;13.314;2023-04-24T10:20:53;3.85;;;0.60;;
68803;SDS011;55787;52.678;13.314;2023-04-24T10:23:21;4.22;;;0.60;;
68803;SDS011;55787;52.678;13.314;2023-04-24T10:25:49;4.93;;;0.70;;
68803;SDS011;55787;52.678;13.314;2023-04-24T10:28:17;4.55;;;0.50;;
68803;SDS011;55787;52.678;13.314;2023-04-24T10:30:44;4.63;;;0.60;;
68803;SDS011;55787;52.678;13.314;2023-04-24T10:33:11;3.85;;;0.60;;
68803;SDS011;55787;52.678;13.314;2023-04-24T10:35:40;4.95;;;0.68;;
68803;SDS011;55787;52.678;13.314;2023-04-24T10:38:13;3.88;;;0.70;;
68803;SDS011;55787;52.678;13.314;2023-04-24T10:40:42;5.18;;;0.70;;
68803;SDS011;55787;52.678;13.314;2023-04-24T10:43:10;4.55;;;0.60;;
68803;SDS011;55787;52.678;13.314;2023-04-24T10:45:38;3.35;;;0.40;;
68803;SDS011;55787;52.678;13.314;2023-04-24T10:48:06;5.15;;;0.60;;
68803;SDS011;55787;52.678;13.314;2023-04-24T10:50:44;4.50;;;0.50;;
68803;SDS011;55787;52.678;13.314;2023-04-24T10:53:22;4.75;;;0.63;;
68803;SDS011;55787;52.678;13.314;2023-04-24T10:56:03;3.92;;;0.60;;
68803;SDS011;55787;52.678;13.314;2023-04-24T10:58:36;5.07;;;1.10;;
68803;SDS011;55787;52.678;13.314;2023-04-24T11:01:27;4.15;;;0.52;;
68803;SDS011;55787;52.678;13.314;2023-04-24T11:03:56;4.07;;;0.75;;
68803;SDS011;55787;52.678;13.314;2023-04-24T11:06:29;4.03;;;0.68;;
68803;SDS011;55787;52.678;13.314;2023-04-24T11:09:01;3.92;;;0.60;;
68803;SDS011;55787;52.678;13.314;2023-04-24T11:11:31;4.97;;;0.60;;
68803;SDS011;55787;52.678;13.314;2023-04-24T11:19:05;5.00;;;0.57;;
68803;SDS011;55787;52.678;13.314;2023-04-24T11:21:44;4.70;;;0.70;;
68803;SDS011;55787;52.678;13.314;2023-04-24T11:29:46;3.90;;;0.63;;
68803;SDS011;55787;52.678;13.314;2023-04-24T11:32:26;5.50;;;1.02;;
68803;SDS011;55787;52.678;13.314;2023-04-24T11:34:57;3.45;;;0.60;;
68803;SDS011;55787;52.678;13.314;2023-04-24T11:37:29;4.32;;;0.60;;
68803;SDS011;55787;52.678;13.314;2023-04-24T11:40:00;4.28;;;0.60;;
68803;SDS011;55787;52.678;13.314;2023-04-24T11:42:28;3.40;;;0.60;;
68803;SDS011;55787;52.678;13.314;2023-04-24T11:44:59;4.20;;;0.70;;
68803;SDS011;55787;52.678;13.314;2023-04-24T11:47:29;3.90;;;0.60;;
68803;SDS011;55787;52.678;13.314;2023-04-24T11:50:00;4.20;;;0.65;;
68803;SDS011;55787;52.678;13.314;2023-04-24T11:52:28;4.20;;;0.60;;
68803;SDS011;55787;52.678;13.314;2023-04-24T11:54:58;3.63;;;0.68;;
68803;SDS011;55787;52.678;13.314;2023-04-24T11:57:26;4.30;;;0.88;;
68803;SDS011;55787;52.678;13.314;2023-04-24T11:59:55;4.07;;;0.80;;
68803;SDS011;55787;52.678;13.314;2023-04-24T12:02:25;4.57;;;0.85;;
68803;SDS011;55787;52.678;13.314;2023-04-24T12:04:53;6.50;;;1.02;;
68803;SDS011;55787;52.678;13.314;2023-04-24T12:07:22;4.53;;;0.80;;
68803;SDS011;55787;52.678;13.314;2023-04-24T12:09:59;3.67;;;0.68;;
68803;SDS011;55787;52.678;13.314;2023-04-24T12:12:26;4.00;;;0.70;;
68803;SDS011;55787;52.678;13.314;2023-04-24T12:14:57;3.42;;;0.63;;
68803;SDS011;55787;52.678;13.314;2023-04-24T12:17:25;6.70;;;0.77;;
68803;SDS011;55787;52.678;13.314;2023-04-24T12:19:58;3.78;;;0.55;;
68803;SDS011;55787;52.678;13.314;2023-04-24T12:22:26;3.80;;;0.50;;
68803;SDS011;55787;52.678;13.314;2023-04-24T12:25:00;3.50;;;0.45;;
68803;SDS011;55787;52.678;13.314;2023-04-24T12:27:29;3.80;;;0.55;;
68803;SDS011;55787;52.678;13.314;2023-04-24T12:29:58;4.72;;;0.73;;
68803;SDS011;55787;52.678;13.314;2023-04-24T12:32:25;5.20;;;0.70;;
68803;SDS011;55787;52.678;13.314;2023-04-24T12:34:53;4.32;;;0.60;;
68803;SDS011;55787;52.678;13.314;2023-04-24T12:37:24;4.30;;;0.60;;
68803;SDS011;55787;52.678;13.314;2023-04-24T12:39:58;5.03;;;0.90;;
68803;SDS011;55787;52.678;13.314;2023-04-24T12:42:27;5.53;;;0.80;;
68803;SDS011;55787;52.678;13.314;2023-04-24T12:44:58;4.32;;;0.70;;
68803;SDS011;55787;52.678;13.314;2023-04-24T12:47:27;3.67;;;0.57;;
68803;SDS011;55787;52.678;13.314;2023-04-24T12:49:54;4.50;;;0.80;;
68803;SDS011;55787;52.678;13.314;2023-04-24T12:52:22;4.13;;;0.50;;
68803;SDS011;55787;52.678;13.314;2023-04-24T12:54:50;4.88;;;0.80;;
68803;SDS011;55787;52.678;13.314;2023-04-24T12:57:19;4.82;;;0.73;;
68803;SDS011;55787;52.678;13.314;2023-04-24T12:59:45;4.25;;;0.68;;
68803;SDS011;55787;52.678;13.314;2023-04-24T13:02:12;3.83;;;0.60;;
68803;SDS011;55787;52.678;13.314;2023-04-24T13:04:39;4.50;;;0.70;;
68803;SDS011;55787;52.678;13.314;2023-04-24T13:07:05;7.15;;;0.60;;
68803;SDS011;55787;52.678;13.314;2023-04-24T13:09:34;4.22;;;0.60;;
68803;SDS011;55787;52.678;13.314;2023-04-24T13:12:00;4.63;;;0.70;;
68803;SDS011;55787;52.678;13.314;2023-04-24T13:14:27;5.07;;;0.80;;
68803;SDS011;55787;52.678;13.314;2023-04-24T13:16:54;5.65;;;0.70;;
68803;SDS011;55787;52.678;13.314;2023-04-24T13:19:20;4.28;;;0.60;;
68803;SDS011;55787;52.678;13.314;2023-04-24T13:21:47;5.60;;;0.90;;
68803;SDS011;55787;52.678;13.314;2023-04-24T13:24:14;5.28;;;0.60;;
68803;SDS011;55787;52.678;13.314;2023-04-24T13:26:41;4.32;;;0.70;;
68803;SDS011;55787;52.678;13.314;2023-04-24T13:29:08;4.38;;;0.85;;
68803;SDS011;55787;52.678;13.314;2023-04-24T13:31:35;4.40;;;0.82;;
68803;SDS011;55787;52.678;13.314;2023-04-24T13:34:02;5.53;;;1.10;;
68803;SDS011;55787;52.678;13.314;2023-04-24T13:36:29;4.45;;;0.80;;
68803;SDS011;55787;52.678;13.314;2023-04-24T13:38:56;4.60;;;0.95;;
68803;SDS011;55787;52.678;13.314;2023-04-24T13:41:23;5.45;;;1.00;;
68803;SDS011;55787;52.678;13.314;2023-04-24T13:43:49;5.15;;;1.00;;
68803;SDS011;55787;52.678;13.314;2023-04-24T13:46:17;5.28;;;0.88;;
68803;SDS011;55787;52.678;13.314;2023-04-24T13:48:44;4.22;;;0.80;;
68803;SDS011;55787;52.678;13.314;2023-04-24T13:51:10;5.72;;;1.00;;
68803;SDS011;55787;52.678;13.314;2023-04-24T13:53:37;4.80;;;0.80;;
68803;SDS011;55787;52.678;13.314;2023-04-24T13:56:05;3.72;;;0.63;;
68803;SDS011;55787;52.678;13.314;2023-04-24T13:58:32;4.18;;;0.73;;
68803;SDS011;55787;52.678;13.314;2023-04-24T14:00:58;4.32;;;0.88;;
68803;SDS011;55787;52.678;13.314;2023-04-24T14:03:25;4.25;;;0.77;;
68803;SDS011;55787;52.678;13.314;2023-04-24T14:05:52;4.88;;;0.80;;
68803;SDS011;55787;52.678;13.314;2023-04-24T14:08:18;4.40;;;0.68;;
68803;SDS011;55787;52.678;13.314;2023-04-24T14:10:45;5.13;;;0.70;;
68803;SDS011;55787;52.678;13.314;2023-04-24T14:13:12;4.28;;;0.70;;
68803;SDS011;55787;52.678;13.314;2023-04-24T14:15:38;5.10;;;0.80;;
68803;SDS011;55787;52.678;13.314;2023-04-24T14:18:05;5.45;;;0.95;;
68803;SDS011;55787;52.678;13.314;2023-04-24T14:20:32;4.90;;;0.82;;
68803;SDS011;55787;52.678;13.314;2023-04-24T14:22:58;5.80;;;0.80;;
68803;SDS011;55787;52.678;13.314;2023-04-24T14:25:25;4.75;;;0.82;;
68803;SDS011;55787;52.678;13.314;2023-04-24T14:27:52;4.50;;;0.70;;
68803;SDS011;55787;52.678;13.314;2023-04-24T14:30:18;3.83;;;0.50;;
68803;SDS011;55787;52.678;13.314;2023-04-24T14:32:45;4.55;;;0.73;;
68803;SDS011;55787;52.678;13.314;2023-04-24T14:35:12;5.10;;;0.60;;
68803;SDS011;55787;52.678;13.314;2023-04-24T14:37:40;4.22;;;0.70;;
68803;SDS011;55787;52.678;13.314;2023-04-24T14:40:08;3.95;;;0.68;;
68803;SDS011;55787;52.678;13.314;2023-04-24T14:42:55;5.15;;;0.60;;
68803;SDS011;55787;52.678;13.314;2023-04-24T14:45:24;4.47;;;0.80;;